sensor_id;sensor_type;location;lat;lon;timestamp;pressure;altitude;pressure_sealevel;temperature;humidity
26657;BME280;14279;50.010;8.260;2023-10-09T00:01:05;101003.81;;;16.00;87.53
26657;BME280;14279;50.010;8.260;2023-10-09T00:03:44;101012.41;;;16.02;86.89
26657;BME280;14279;50.010;8.260;2023-10-09T00:06:10;101011.88;;;16.11;86.84
26657;BME280;14279;50.010;8.260;2023-10-09T00:08:38;101011.69;;;16.14;86.27
26657;BME280;14279;50.010;8.260;2023-10-09T00:11:04;101004.28;;;16.21;86.23
26657;BME280;14279;50.010;8.260;2023-10-09T00:13:41;101004.97;;;16.25;85.99
26657;BME280;14279;50.010;8.260;2023-10-09T00:16:24;100992.31;;;16.31;85.66
26657;BME280;14279;50.010;8.260;2023-10-09T00:19:08;100991.19;;;16.35;85.75
26657;BME280;14279;50.010;8.260;2023-10-09T00:21:42;100985.84;;;16.37;85.40
26657;BME280;14279;50.010;8.260;2023-10-09T00:24:07;100984.44;;;16.31;86.01
26657;BME280;14279;50.010;8.260;2023-10-09T00:26:40;100991.56;;;16.29;86.15
26657;BME280;14279;50.010;8.260;2023-10-09T00:29:10;100991.56;;;16.29;86.31
26657;BME280;14279;50.010;8.260;2023-10-09T00:31:53;100986.38;;;16.28;86.42
26657;BME280;14279;50.010;8.260;2023-10-09T00:34:38;100983.09;;;16.24;86.95
26657;BME280;14279;50.010;8.260;2023-10-09T00:37:10;100992.03;;;16.21;86.87
26657;BME280;14279;50.010;8.260;2023-10-09T00:39:42;100992.78;;;16.23;87.55
26657;BME280;14279;50.010;8.260;2023-10-09T00:42:09;100994.25;;;16.28;88.53
26657;BME280;14279;50.010;8.260;2023-10-09T00:44:38;100989.09;;;16.26;89.58
26657;BME280;14279;50.010;8.260;2023-10-09T00:47:14;100983.28;;;16.21;90.55
26657;BME280;14279;50.010;8.260;2023-10-09T00:50:03;100982.16;;;16.25;90.52
26657;BME280;14279;50.010;8.260;2023-10-09T00:52:37;100982.81;;;16.29;90.41
26657;BME280;14279;50.010;8.260;2023-10-09T00:55:23;100969.84;;;16.26;89.95
26657;BME280;14279;50.010;8.260;2023-10-09T00:58:07;100964.31;;;16.01;89.66
26657;BME280;14279;50.010;8.260;2023-10-09T01:00:41;100967.03;;;16.00;90.46
26657;BME280;14279;50.010;8.260;2023-10-09T01:03:09;100957.47;;;15.99;90.15
26657;BME280;14279;50.010;8.260;2023-10-09T01:05:51;100959.88;;;16.02;89.61
26657;BME280;14279;50.010;8.260;2023-10-09T01:08:29;100957.66;;;15.96;88.70
26657;BME280;14279;50.010;8.260;2023-10-09T01:11:13;100950.78;;;15.93;88.80
26657;BME280;14279;50.010;8.260;2023-10-09T01:13:44;100946.47;;;15.92;88.12
26657;BME280;14279;50.010;8.260;2023-10-09T01:16:17;100945.72;;;15.90;87.98
26657;BME280;14279;50.010;8.260;2023-10-09T01:18:43;100941.50;;;15.87;88.09
26657;BME280;14279;50.010;8.260;2023-10-09T01:21:11;100942.25;;;15.89;87.87
26657;BME280;14279;50.010;8.260;2023-10-09T01:23:45;100944.38;;;15.83;88.10
26657;BME280;14279;50.010;8.260;2023-10-09T01:26:30;100940.03;;;15.98;87.70
26657;BME280;14279;50.010;8.260;2023-10-09T01:28:59;100939.44;;;15.92;87.82
26657;BME280;14279;50.010;8.260;2023-10-09T01:31:26;100933.00;;;15.82;88.32
26657;BME280;14279;50.010;8.260;2023-10-09T01:33:52;100935.31;;;15.58;89.84
26657;BME280;14279;50.010;8.260;2023-10-09T01:36:19;100935.97;;;15.61;90.14
26657;BME280;14279;50.010;8.260;2023-10-09T01:38:58;100933.00;;;15.68;89.11
26657;BME280;14279;50.010;8.260;2023-10-09T01:41:23;100923.72;;;15.62;89.17
26657;BME280;14279;50.010;8.260;2023-10-09T01:43:49;100924.47;;;15.64;89.33
26657;BME280;14279;50.010;8.260;2023-10-09T01:46:16;100930.81;;;15.60;89.79
26657;BME280;14279;50.010;8.260;2023-10-09T01:48:45;100921.91;;;15.62;89.36
26657;BME280;14279;50.010;8.260;2023-10-09T01:51:15;100932.88;;;15.69;89.24
26657;BME280;14279;50.010;8.260;2023-10-09T01:53:46;100923.06;;;15.73;88.92
26657;BME280;14279;50.010;8.260;2023-10-09T01:56:21;100923.63;;;15.78;88.38
26657;BME280;14279;50.010;8.260;2023-10-09T01:58:47;100925.78;;;15.71;88.62
26657;BME280;14279;50.010;8.260;2023-10-09T02:01:13;100922.63;;;15.81;88.73
26657;BME280;14279;50.010;8.260;2023-10-09T02:03:40;100927.28;;;15.75;88.83
26657;BME280;14279;50.010;8.260;2023-10-09T02:06:08;100928.97;;;15.76;89.04
26657;BME280;14279;50.010;8.260;2023-10-09T02:08:53;100930.78;;;15.76;88.65
26657;BME280;14279;50.010;8.260;2023-10-09T02:11:19;100935.50;;;15.69;88.77
26657;BME280;14279;50.010;8.260;2023-10-09T02:13:51;100931.06;;;15.55;90.36
26657;BME280;14279;50.010;8.260;2023-10-09T02:16:20;100929.19;;;15.57;90.84
26657;BME280;14279;50.010;8.260;2023-10-09T02:18:53;100935.44;;;15.71;90.45
26657;BME280;14279;50.010;8.260;2023-10-09T02:21:21;100928.03;;;15.77;90.23
26657;BME280;14279;50.010;8.260;2023-10-09T02:24:03;100921.00;;;15.78;90.29
26657;BME280;14279;50.010;8.260;2023-10-09T02:26:34;100913.50;;;15.72;90.43
26657;BME280;14279;50.010;8.260;2023-10-09T02:29:31;100921.38;;;15.72;91.13
26657;BME280;14279;50.010;8.260;2023-10-09T02:32:00;100911.91;;;15.69;91.13
26657;BME280;14279;50.010;8.260;2023-10-09T02:34:26;100918.00;;;15.70;91.79
26657;BME280;14279;50.010;8.260;2023-10-09T02:36:53;100913.50;;;15.72;91.93
26657;BME280;14279;50.010;8.260;2023-10-09T02:39:30;100906.09;;;15.64;92.86
26657;BME280;14279;50.010;8.260;2023-10-09T02:42:01;100905.41;;;15.60;92.98
26657;BME280;14279;50.010;8.260;2023-10-09T02:44:44;100906.53;;;15.56;93.16
26657;BME280;14279;50.010;8.260;2023-10-09T02:47:15;100899.59;;;15.55;93.11
26657;BME280;14279;50.010;8.260;2023-10-09T02:49:48;100895.78;;;15.61;92.36
26657;BME280;14279;50.010;8.260;2023-10-09T02:52:14;100898.94;;;15.66;92.39
26657;BME280;14279;50.010;8.260;2023-10-09T02:54:44;100892.00;;;15.65;91.70
26657;BME280;14279;50.010;8.260;2023-10-09T02:57:11;100883.41;;;15.63;91.63
26657;BME280;14279;50.010;8.260;2023-10-09T02:59:46;100890.25;;;15.66;91.30
26657;BME280;14279;50.010;8.260;2023-10-09T03:02:12;100887.81;;;15.62;91.05
26657;BME280;14279;50.010;8.260;2023-10-09T03:04:38;100896.59;;;15.61;91.50
26657;BME280;14279;50.010;8.260;2023-10-09T03:07:04;100890.44;;;15.62;90.86
26657;BME280;14279;50.010;8.260;2023-10-09T03:09:29;100891.59;;;15.73;90.37
26657;BME280;14279;50.010;8.260;2023-10-09T03:12:01;100890.72;;;15.72;90.38
26657;BME280;14279;50.010;8.260;2023-10-09T03:14:33;100890.25;;;15.80;89.85
26657;BME280;14279;50.010;8.260;2023-10-09T03:17:00;100888.78;;;15.76;90.54
26657;BME280;14279;50.010;8.260;2023-10-09T03:19:27;100880.63;;;15.81;90.05
26657;BME280;14279;50.010;8.260;2023-10-09T03:21:53;100880.69;;;15.79;89.95
26657;BME280;14279;50.010;8.260;2023-10-09T03:24:19;100882.56;;;15.77;90.25
26657;BME280;14279;50.010;8.260;2023-10-09T03:26:47;100871.59;;;15.70;90.86
26657;BME280;14279;50.010;8.260;2023-10-09T03:29:13;100875.06;;;15.71;90.37
26657;BME280;14279;50.010;8.260;2023-10-09T03:31:39;100882.00;;;15.72;90.58
26657;BME280;14279;50.010;8.260;2023-10-09T03:34:05;100871.50;;;15.72;90.08
26657;BME280;14279;50.010;8.260;2023-10-09T03:36:30;100872.44;;;15.71;90.35
26657;BME280;14279;50.010;8.260;2023-10-09T03:38:56;100869.81;;;15.71;90.35
26657;BME280;14279;50.010;8.260;2023-10-09T03:41:23;100875.16;;;15.69;90.31
26657;BME280;14279;50.010;8.260;2023-10-09T03:43:51;100863.06;;;15.67;90.52
26657;BME280;14279;50.010;8.260;2023-10-09T03:46:16;100856.97;;;15.66;90.59
26657;BME280;14279;50.010;8.260;2023-10-09T03:48:57;100859.13;;;15.59;90.57
26657;BME280;14279;50.010;8.260;2023-10-09T03:51:25;100869.34;;;15.64;90.45
26657;BME280;14279;50.010;8.260;2023-10-09T03:53:51;100864.28;;;15.61;90.74
26657;BME280;14279;50.010;8.260;2023-10-09T03:56:19;100868.31;;;15.67;91.53
26657;BME280;14279;50.010;8.260;2023-10-09T03:58:48;100866.44;;;15.69;92.57
26657;BME280;14279;50.010;8.260;2023-10-09T04:01:16;100866.63;;;15.66;93.36
26657;BME280;14279;50.010;8.260;2023-10-09T04:03:49;100873.47;;;15.68;93.21
26657;BME280;14279;50.010;8.260;2023-10-09T04:06:20;100880.78;;;15.77;92.33
26657;BME280;14279;50.010;8.260;2023-10-09T04:08:46;100869.06;;;15.69;92.29
26657;BME280;14279;50.010;8.260;2023-10-09T04:11:16;100871.41;;;15.59;92.65
26657;BME280;14279;50.010;8.260;2023-10-09T04:13:45;100873.63;;;15.65;92.21
26657;BME280;14279;50.010;8.260;2023-10-09T04:16:14;100866.28;;;15.72;91.97
26657;BME280;14279;50.010;8.260;2023-10-09T04:18:58;100870.41;;;15.76;92.02
26657;BME280;14279;50.010;8.260;2023-10-09T04:21:25;100864.41;;;15.74;92.31
26657;BME280;14279;50.010;8.260;2023-10-09T04:24:06;100864.75;;;15.82;92.03
26657;BME280;14279;50.010;8.260;2023-10-09T04:26:50;100864.28;;;15.75;91.50
26657;BME280;14279;50.010;8.260;2023-10-09T04:29:23;100862.72;;;15.73;91.68
26657;BME280;14279;50.010;8.260;2023-10-09T04:31:55;100873.47;;;15.68;91.82
26657;BME280;14279;50.010;8.260;2023-10-09T04:34:25;100860.56;;;15.80;92.52
26657;BME280;14279;50.010;8.260;2023-10-09T04:36:55;100861.38;;;15.80;91.96
26657;BME280;14279;50.010;8.260;2023-10-09T04:39:42;100865.63;;;15.83;91.74
26657;BME280;14279;50.010;8.260;2023-10-09T04:42:14;100863.06;;;15.81;91.82
26657;BME280;14279;50.010;8.260;2023-10-09T04:44:49;100865.88;;;15.78;92.38
26657;BME280;14279;50.010;8.260;2023-10-09T04:47:30;100872.00;;;15.93;91.79
26657;BME280;14279;50.010;8.260;2023-10-09T04:50:10;100877.00;;;15.98;91.52
26657;BME280;14279;50.010;8.260;2023-10-09T04:52:58;100867.53;;;15.95;91.18
26657;BME280;14279;50.010;8.260;2023-10-09T04:55:44;100878.50;;;15.87;91.94
26657;BME280;14279;50.010;8.260;2023-10-09T04:58:20;100872.28;;;15.74;93.19
26657;BME280;14279;50.010;8.260;2023-10-09T05:00:54;100878.59;;;15.55;94.91
26657;BME280;14279;50.010;8.260;2023-10-09T05:03:22;100879.97;;;15.46;95.77
26657;BME280;14279;50.010;8.260;2023-10-09T05:05:53;100867.53;;;15.50;95.74
26657;BME280;14279;50.010;8.260;2023-10-09T05:08:38;100865.69;;;15.52;95.75
26657;BME280;14279;50.010;8.260;2023-10-09T05:11:11;100865.56;;;15.54;95.72
26657;BME280;14279;50.010;8.260;2023-10-09T05:13:54;100861.16;;;15.54;95.65
26657;BME280;14279;50.010;8.260;2023-10-09T05:16:36;100868.56;;;15.47;95.79
26657;BME280;14279;50.010;8.260;2023-10-09T05:19:03;100862.19;;;15.52;95.37
26657;BME280;14279;50.010;8.260;2023-10-09T05:21:33;100858.63;;;15.53;95.30
26657;BME280;14279;50.010;8.260;2023-10-09T05:24:10;100875.97;;;15.55;94.86
26657;BME280;14279;50.010;8.260;2023-10-09T05:26:41;100861.53;;;15.48;95.52
26657;BME280;14279;50.010;8.260;2023-10-09T05:29:19;100877.66;;;15.56;94.95
26657;BME280;14279;50.010;8.260;2023-10-09T05:31:50;100878.59;;;15.55;95.49
26657;BME280;14279;50.010;8.260;2023-10-09T05:34:21;100874.03;;;15.59;94.98
26657;BME280;14279;50.010;8.260;2023-10-09T05:36:48;100871.13;;;15.63;94.64
26657;BME280;14279;50.010;8.260;2023-10-09T05:39:13;100880.88;;;15.61;94.87
26657;BME280;14279;50.010;8.260;2023-10-09T05:41:44;100869.97;;;15.53;95.35
26657;BME280;14279;50.010;8.260;2023-10-09T05:44:25;100864.66;;;15.55;95.44
26657;BME280;14279;50.010;8.260;2023-10-09T05:47:08;100873.00;;;15.61;95.16
26657;BME280;14279;50.010;8.260;2023-10-09T05:49:53;100866.97;;;15.59;95.61
26657;BME280;14279;50.010;8.260;2023-10-09T05:52:21;100880.03;;;15.61;95.11
26657;BME280;14279;50.010;8.260;2023-10-09T05:55:06;100871.13;;;15.63;95.41
26657;BME280;14279;50.010;8.260;2023-10-09T05:57:46;100878.25;;;15.61;95.59
26657;BME280;14279;50.010;8.260;2023-10-09T06:00:30;100888.91;;;15.58;96.30
26657;BME280;14279;50.010;8.260;2023-10-09T06:03:14;100886.34;;;15.73;95.61
26657;BME280;14279;50.010;8.260;2023-10-09T06:05:55;100873.56;;;15.67;95.23
26657;BME280;14279;50.010;8.260;2023-10-09T06:08:28;100877.69;;;15.71;95.68
26657;BME280;14279;50.010;8.260;2023-10-09T06:11:14;100881.63;;;15.63;95.68
26657;BME280;14279;50.010;8.260;2023-10-09T06:14:10;100902.72;;;15.76;95.13
26657;BME280;14279;50.010;8.260;2023-10-09T06:17:08;100893.91;;;15.77;94.90
26657;BME280;14279;50.010;8.260;2023-10-09T06:20:08;100889.72;;;15.75;95.25
26657;BME280;14279;50.010;8.260;2023-10-09T06:22:54;100892.88;;;15.80;94.90
26657;BME280;14279;50.010;8.260;2023-10-09T06:32:32;100888.34;;;15.98;93.76
26657;BME280;14279;50.010;8.260;2023-10-09T06:34:59;100893.41;;;15.87;94.40
26657;BME280;14279;50.010;8.260;2023-10-09T06:37:48;100886.09;;;15.92;93.85
26657;BME280;14279;50.010;8.260;2023-10-09T06:40:36;100902.69;;;15.92;93.82
26657;BME280;14279;50.010;8.260;2023-10-09T06:43:05;100900.16;;;15.91;93.54
26657;BME280;14279;50.010;8.260;2023-10-09T06:45:44;100902.97;;;16.02;92.85
26657;BME280;14279;50.010;8.260;2023-10-09T06:48:24;100911.31;;;16.09;92.77
26657;BME280;14279;50.010;8.260;2023-10-09T06:51:09;100899.13;;;16.08;92.57
26657;BME280;14279;50.010;8.260;2023-10-09T06:54:01;100897.91;;;15.99;92.92
26657;BME280;14279;50.010;8.260;2023-10-09T06:56:31;100902.13;;;16.02;93.34
26657;BME280;14279;50.010;8.260;2023-10-09T06:59:12;100895.84;;;16.04;91.64
26657;BME280;14279;50.010;8.260;2023-10-09T07:02:09;100897.44;;;16.07;90.62
26657;BME280;14279;50.010;8.260;2023-10-09T07:04:56;100900.06;;;16.07;90.24
26657;BME280;14279;50.010;8.260;2023-10-09T07:07:35;100906.75;;;16.13;90.00
26657;BME280;14279;50.010;8.260;2023-10-09T07:10:00;100906.34;;;16.19;89.95
26657;BME280;14279;50.010;8.260;2023-10-09T07:12:44;100902.31;;;16.13;89.22
26657;BME280;14279;50.010;8.260;2023-10-09T07:15:18;100903.47;;;16.23;88.60
26657;BME280;14279;50.010;8.260;2023-10-09T07:18:02;100906.56;;;16.30;87.90
26657;BME280;14279;50.010;8.260;2023-10-09T07:20:44;100892.28;;;16.34;87.36
26657;BME280;14279;50.010;8.260;2023-10-09T07:23:23;100898.47;;;16.48;87.12
26657;BME280;14279;50.010;8.260;2023-10-09T07:26:00;100909.72;;;16.50;87.27
26657;BME280;14279;50.010;8.260;2023-10-09T07:28:42;100918.25;;;16.53;87.26
26657;BME280;14279;50.010;8.260;2023-10-09T07:31:08;100915.34;;;16.44;85.88
26657;BME280;14279;50.010;8.260;2023-10-09T07:33:49;100921.19;;;16.34;85.49
26657;BME280;14279;50.010;8.260;2023-10-09T07:36:22;100913.28;;;16.49;85.42
26657;BME280;14279;50.010;8.260;2023-10-09T07:39:01;100904.63;;;16.61;85.99
26657;BME280;14279;50.010;8.260;2023-10-09T07:41:30;100896.00;;;16.59;85.54
26657;BME280;14279;50.010;8.260;2023-10-09T07:43:58;100905.03;;;16.55;85.57
26657;BME280;14279;50.010;8.260;2023-10-09T07:46:43;100900.97;;;16.64;85.75
26657;BME280;14279;50.010;8.260;2023-10-09T07:49:35;100913.63;;;16.72;85.38
26657;BME280;14279;50.010;8.260;2023-10-09T07:52:02;100931.03;;;16.87;83.77
26657;BME280;14279;50.010;8.260;2023-10-09T07:54:27;100919.44;;;16.77;83.34
26657;BME280;14279;50.010;8.260;2023-10-09T07:57:02;100939.28;;;16.68;82.83
26657;BME280;14279;50.010;8.260;2023-10-09T07:59:37;100939.09;;;16.57;83.50
26657;BME280;14279;50.010;8.260;2023-10-09T08:02:07;100929.28;;;16.73;82.44
26657;BME280;14279;50.010;8.260;2023-10-09T08:04:39;100931.88;;;17.02;81.39
26657;BME280;14279;50.010;8.260;2023-10-09T08:07:15;100938.63;;;17.34;80.03
26657;BME280;14279;50.010;8.260;2023-10-09T08:10:08;100931.19;;;17.40;79.21
26657;BME280;14279;50.010;8.260;2023-10-09T08:12:43;100933.03;;;17.25;79.80
26657;BME280;14279;50.010;8.260;2023-10-09T08:15:15;100927.38;;;17.04;81.56
26657;BME280;14279;50.010;8.260;2023-10-09T08:17:51;100917.81;;;16.89;83.02
26657;BME280;14279;50.010;8.260;2023-10-09T08:20:26;100913.31;;;16.91;83.32
26657;BME280;14279;50.010;8.260;2023-10-09T08:22:55;100918.59;;;17.18;82.17
26657;BME280;14279;50.010;8.260;2023-10-09T08:25:25;100919.22;;;17.22;81.94
26657;BME280;14279;50.010;8.260;2023-10-09T08:28:01;100922.63;;;17.37;80.95
26657;BME280;14279;50.010;8.260;2023-10-09T08:30:39;100926.19;;;17.63;79.44
26657;BME280;14279;50.010;8.260;2023-10-09T08:33:20;100925.28;;;17.50;79.92
26657;BME280;14279;50.010;8.260;2023-10-09T08:35:53;100929.69;;;17.36;80.86
26657;BME280;14279;50.010;8.260;2023-10-09T08:38:20;100935.47;;;17.28;82.18
26657;BME280;14279;50.010;8.260;2023-10-09T08:40:50;100940.38;;;17.20;82.54
26657;BME280;14279;50.010;8.260;2023-10-09T08:43:17;100937.59;;;17.36;82.08
26657;BME280;14279;50.010;8.260;2023-10-09T08:45:46;100946.50;;;17.34;82.14
26657;BME280;14279;50.010;8.260;2023-10-09T08:48:12;100938.50;;;17.22;82.31
26657;BME280;14279;50.010;8.260;2023-10-09T08:50:45;100946.81;;;17.29;82.72
26657;BME280;14279;50.010;8.260;2023-10-09T08:53:12;100942.41;;;17.30;82.72
26657;BME280;14279;50.010;8.260;2023-10-09T08:55:38;100936.22;;;17.31;82.78
26657;BME280;14279;50.010;8.260;2023-10-09T08:58:06;100932.91;;;17.27;83.67
26657;BME280;14279;50.010;8.260;2023-10-09T09:00:39;100943.34;;;17.28;83.61
26657;BME280;14279;50.010;8.260;2023-10-09T09:03:08;100961.78;;;17.28;83.48
26657;BME280;14279;50.010;8.260;2023-10-09T09:05:33;100959.97;;;17.29;83.51
26657;BME280;14279;50.010;8.260;2023-10-09T09:08:01;100957.03;;;17.21;83.31
26657;BME280;14279;50.010;8.260;2023-10-09T09:10:31;100955.84;;;17.25;83.38
26657;BME280;14279;50.010;8.260;2023-10-09T09:13:04;100956.66;;;17.40;82.98
26657;BME280;14279;50.010;8.260;2023-10-09T09:15:31;100952.16;;;17.55;82.28
26657;BME280;14279;50.010;8.260;2023-10-09T09:18:07;100962.69;;;17.55;82.68
26657;BME280;14279;50.010;8.260;2023-10-09T09:20:36;100964.41;;;17.69;81.96
26657;BME280;14279;50.010;8.260;2023-10-09T09:23:09;100959.34;;;17.66;81.97
26657;BME280;14279;50.010;8.260;2023-10-09T09:25:47;100962.63;;;17.69;81.62
26657;BME280;14279;50.010;8.260;2023-10-09T09:28:32;100963.47;;;17.83;81.06
26657;BME280;14279;50.010;8.260;2023-10-09T09:31:07;100971.75;;;18.04;80.26
26657;BME280;14279;50.010;8.260;2023-10-09T09:33:39;100964.06;;;18.01;80.12
26657;BME280;14279;50.010;8.260;2023-10-09T09:36:08;100957.69;;;17.91;80.25
26657;BME280;14279;50.010;8.260;2023-10-09T09:38:37;100953.78;;;17.96;80.36
26657;BME280;14279;50.010;8.260;2023-10-09T09:41:16;100958.81;;;18.14;79.98
26657;BME280;14279;50.010;8.260;2023-10-09T09:43:55;100968.03;;;17.94;80.93
26657;BME280;14279;50.010;8.260;2023-10-09T09:46:32;100966.50;;;18.17;80.24
26657;BME280;14279;50.010;8.260;2023-10-09T09:49:05;100967.88;;;18.10;80.79
26657;BME280;14279;50.010;8.260;2023-10-09T09:51:32;100982.59;;;18.12;80.32
26657;BME280;14279;50.010;8.260;2023-10-09T09:53:58;100979.44;;;18.33;79.28
26657;BME280;14279;50.010;8.260;2023-10-09T09:56:25;100975.78;;;18.23;79.22
26657;BME280;14279;50.010;8.260;2023-10-09T09:58:51;100988.09;;;18.35;78.89
26657;BME280;14279;50.010;8.260;2023-10-09T10:01:25;100984.28;;;18.39;78.91
26657;BME280;14279;50.010;8.260;2023-10-09T10:04:14;100990.72;;;18.48;78.72
26657;BME280;14279;50.010;8.260;2023-10-09T10:06:45;100985.97;;;18.53;78.41
26657;BME280;14279;50.010;8.260;2023-10-09T10:09:41;100995.53;;;18.80;77.22
26657;BME280;14279;50.010;8.260;2023-10-09T10:12:07;100990.88;;;18.84;77.34
26657;BME280;14279;50.010;8.260;2023-10-09T10:15:03;100973.72;;;18.65;78.31
26657;BME280;14279;50.010;8.260;2023-10-09T10:20:28;100977.28;;;18.77;78.99
26657;BME280;14279;50.010;8.260;2023-10-09T10:23:19;100980.09;;;19.00;77.95
26657;BME280;14279;50.010;8.260;2023-10-09T10:25:46;100971.56;;;18.96;77.67
26657;BME280;14279;50.010;8.260;2023-10-09T10:28:24;100963.44;;;19.23;76.69
26657;BME280;14279;50.010;8.260;2023-10-09T10:31:12;100959.16;;;19.34;76.25
26657;BME280;14279;50.010;8.260;2023-10-09T10:36:21;100938.81;;;19.47;75.31
26657;BME280;14279;50.010;8.260;2023-10-09T10:39:06;100927.34;;;19.60;75.24
26657;BME280;14279;50.010;8.260;2023-10-09T10:41:57;100919.13;;;19.98;73.41
26657;BME280;14279;50.010;8.260;2023-10-09T10:44:28;100919.78;;;19.78;74.30
26657;BME280;14279;50.010;8.260;2023-10-09T10:47:07;100909.69;;;20.07;73.15
26657;BME280;14279;50.010;8.260;2023-10-09T10:49:49;100913.16;;;20.31;72.06
26657;BME280;14279;50.010;8.260;2023-10-09T10:52:26;100930.59;;;20.33;72.62
26657;BME280;14279;50.010;8.260;2023-10-09T10:55:13;100925.03;;;20.13;73.22
26657;BME280;14279;50.010;8.260;2023-10-09T10:58:24;100918.31;;;20.09;73.84
26657;BME280;14279;50.010;8.260;2023-10-09T11:01:00;100927.34;;;20.41;72.93
26657;BME280;14279;50.010;8.260;2023-10-09T11:03:39;100913.59;;;20.47;72.53
26657;BME280;14279;50.010;8.260;2023-10-09T11:06:30;100914.53;;;20.80;71.38
26657;BME280;14279;50.010;8.260;2023-10-09T11:09:09;100914.47;;;21.03;70.30
26657;BME280;14279;50.010;8.260;2023-10-09T11:11:52;100924.19;;;21.14;69.43
26657;BME280;14279;50.010;8.260;2023-10-09T11:14:45;100922.34;;;20.93;70.72
26657;BME280;14279;50.010;8.260;2023-10-09T11:17:16;100914.44;;;21.14;69.54
26657;BME280;14279;50.010;8.260;2023-10-09T11:19:50;100908.25;;;21.25;69.40
26657;BME280;14279;50.010;8.260;2023-10-09T11:22:18;100909.38;;;21.44;68.16
26657;BME280;14279;50.010;8.260;2023-10-09T11:24:53;100904.53;;;21.70;67.89
26657;BME280;14279;50.010;8.260;2023-10-09T11:27:52;100891.06;;;22.04;66.62
26657;BME280;14279;50.010;8.260;2023-10-09T11:30:31;100884.47;;;22.40;65.12
26657;BME280;14279;50.010;8.260;2023-10-09T11:33:04;100885.09;;;22.53;63.98
26657;BME280;14279;50.010;8.260;2023-10-09T11:35:40;100876.91;;;22.86;62.19
26657;BME280;14279;50.010;8.260;2023-10-09T11:38:08;100874.84;;;22.99;60.68
26657;BME280;14279;50.010;8.260;2023-10-09T11:40:46;100861.13;;;22.84;60.03
26657;BME280;14279;50.010;8.260;2023-10-09T11:43:18;100863.75;;;22.64;61.48
26657;BME280;14279;50.010;8.260;2023-10-09T11:45:48;100869.03;;;22.45;59.77
26657;BME280;14279;50.010;8.260;2023-10-09T11:48:21;100868.31;;;22.43;60.36
26657;BME280;14279;50.010;8.260;2023-10-09T11:50:56;100853.81;;;22.47;59.84
26657;BME280;14279;50.010;8.260;2023-10-09T11:53:43;100847.91;;;22.33;55.45
26657;BME280;14279;50.010;8.260;2023-10-09T11:56:10;100838.75;;;22.47;53.25
26657;BME280;14279;50.010;8.260;2023-10-09T11:58:39;100831.34;;;22.61;54.92
26657;BME280;14279;50.010;8.260;2023-10-09T12:01:11;100832.31;;;22.50;54.67
26657;BME280;14279;50.010;8.260;2023-10-09T12:03:43;100837.63;;;22.79;51.75
26657;BME280;14279;50.010;8.260;2023-10-09T12:06:09;100838.34;;;22.91;51.26
26657;BME280;14279;50.010;8.260;2023-10-09T12:08:38;100829.81;;;23.07;47.86
26657;BME280;14279;50.010;8.260;2023-10-09T12:11:05;100836.22;;;23.44;47.86
26657;BME280;14279;50.010;8.260;2023-10-09T12:13:35;100829.50;;;23.40;44.00
26657;BME280;14279;50.010;8.260;2023-10-09T12:16:00;100818.63;;;23.33;43.63
26657;BME280;14279;50.010;8.260;2023-10-09T12:18:25;100818.88;;;23.40;42.92
26657;BME280;14279;50.010;8.260;2023-10-09T12:20:51;100817.94;;;23.31;41.97
26657;BME280;14279;50.010;8.260;2023-10-09T12:23:22;100818.16;;;23.48;42.34
26657;BME280;14279;50.010;8.260;2023-10-09T12:25:51;100809.56;;;22.96;40.82
26657;BME280;14279;50.010;8.260;2023-10-09T12:28:21;100806.88;;;23.16;41.96
26657;BME280;14279;50.010;8.260;2023-10-09T12:30:47;100807.31;;;23.11;40.92
26657;BME280;14279;50.010;8.260;2023-10-09T12:33:48;100814.44;;;23.21;40.21
26657;BME280;14279;50.010;8.260;2023-10-09T12:36:14;100810.78;;;23.12;40.98
26657;BME280;14279;50.010;8.260;2023-10-09T12:38:48;100809.56;;;23.06;40.87
26657;BME280;14279;50.010;8.260;2023-10-09T12:41:41;100804.69;;;22.92;40.81
26657;BME280;14279;50.010;8.260;2023-10-09T12:44:07;100789.56;;;23.02;40.97
26657;BME280;14279;50.010;8.260;2023-10-09T12:46:40;100804.53;;;23.03;40.06
26657;BME280;14279;50.010;8.260;2023-10-09T12:49:05;100801.16;;;23.21;40.42
26657;BME280;14279;50.010;8.260;2023-10-09T12:51:31;100800.31;;;23.30;40.07
26657;BME280;14279;50.010;8.260;2023-10-09T12:53:56;100797.50;;;23.41;40.65
26657;BME280;14279;50.010;8.260;2023-10-09T12:56:27;100813.81;;;23.56;39.60
26657;BME280;14279;50.010;8.260;2023-10-09T12:58:59;100813.06;;;23.26;41.08
26657;BME280;14279;50.010;8.260;2023-10-09T13:01:26;100810.94;;;23.30;40.04
26657;BME280;14279;50.010;8.260;2023-10-09T13:03:54;100808.19;;;23.22;40.05
26657;BME280;14279;50.010;8.260;2023-10-09T13:06:19;100807.44;;;23.20;40.07
26657;BME280;14279;50.010;8.260;2023-10-09T13:08:49;100811.38;;;23.25;40.20
26657;BME280;14279;50.010;8.260;2023-10-09T13:11:14;100800.00;;;23.43;39.85
26657;BME280;14279;50.010;8.260;2023-10-09T13:13:43;100803.97;;;23.67;40.14
26657;BME280;14279;50.010;8.260;2023-10-09T13:16:17;100796.34;;;23.82;40.30
26657;BME280;14279;50.010;8.260;2023-10-09T13:18:56;100792.97;;;23.52;40.21
26657;BME280;14279;50.010;8.260;2023-10-09T13:21:26;100791.66;;;23.66;40.51
26657;BME280;14279;50.010;8.260;2023-10-09T13:23:56;100791.91;;;23.72;40.15
26657;BME280;14279;50.010;8.260;2023-10-09T13:26:22;100783.22;;;23.80;40.87
26657;BME280;14279;50.010;8.260;2023-10-09T13:29:01;100794.41;;;23.84;40.09
26657;BME280;14279;50.010;8.260;2023-10-09T13:31:26;100791.63;;;23.76;40.19
26657;BME280;14279;50.010;8.260;2023-10-09T13:33:53;100792.19;;;23.79;40.60
26657;BME280;14279;50.010;8.260;2023-10-09T13:36:20;100794.78;;;23.89;40.91
26657;BME280;14279;50.010;8.260;2023-10-09T13:38:55;100797.97;;;23.93;41.00